createdAt,value
2018-07-26T00:00:10.604Z,0
2018-07-26T00:00:51.064Z,0
2018-07-26T00:01:31.525Z,0
2018-07-26T00:02:12.058Z,0
2018-07-26T00:02:52.558Z,0
2018-07-26T00:03:33.055Z,0
2018-07-26T00:04:13.577Z,0
2018-07-26T00:04:54.082Z,0
2018-07-26T00:05:34.595Z,0
2018-07-26T00:06:15.064Z,0
2018-07-26T00:06:55.550Z,0
2018-07-26T00:07:36.050Z,0
2018-07-26T00:08:16.550Z,0
2018-07-26T00:08:57.011Z,0
2018-07-26T00:09:37.544Z,0
2018-07-26T00:10:17.999Z,0
2018-07-26T00:10:58.672Z,0
2018-07-26T00:11:39.169Z,0
2018-07-26T00:12:19.597Z,0
2018-07-26T00:13:00.149Z,0
2018-07-26T00:13:40.641Z,0
2018-07-26T00:14:21.110Z,0
2018-07-26T00:15:01.646Z,0
2018-07-26T00:15:42.167Z,0
2018-07-26T00:16:22.619Z,0
2018-07-26T00:17:03.133Z,0
2018-07-26T00:17:43.639Z,0
2018-07-26T00:18:24.183Z,0
2018-07-26T00:19:04.651Z,0
2018-07-26T00:19:45.175Z,0
2018-07-26T00:20:25.681Z,0
2018-07-26T00:21:06.144Z,0
2018-07-26T00:21:46.761Z,0
2018-07-26T00:22:27.146Z,0
2018-07-26T00:23:07.634Z,0
2018-07-26T00:23:48.196Z,0
2018-07-26T00:24:28.634Z,0
2018-07-26T00:25:09.208Z,0
2018-07-26T00:25:49.687Z,0
2018-07-26T00:26:30.177Z,0
2018-07-26T00:27:10.626Z,0
2018-07-26T00:27:51.166Z,0
2018-07-26T00:28:31.663Z,0
2018-07-26T00:29:12.193Z,0
2018-07-26T00:29:52.750Z,0
2018-07-26T00:30:33.186Z,0
2018-07-26T00:31:13.827Z,0
2018-07-26T00:31:54.267Z,0
2018-07-26T00:32:34.818Z,0
2018-07-26T00:33:15.286Z,0
2018-07-26T00:33:55.787Z,0
2018-07-26T00:34:36.273Z,0
2018-07-26T00:35:16.768Z,0
2018-07-26T00:35:57.281Z,0
2018-07-26T00:36:37.735Z,0
2018-07-26T00:37:18.250Z,0
2018-07-26T00:37:58.714Z,0
2018-07-26T00:38:39.244Z,0
2018-07-26T00:39:19.737Z,0
2018-07-26T00:40:00.274Z,0
2018-07-26T00:40:40.782Z,0
2018-07-26T00:41:21.333Z,0
2018-07-26T00:42:01.807Z,0
2018-07-26T00:42:42.308Z,0
2018-07-26T00:43:22.787Z,0
2018-07-26T00:44:03.264Z,0
2018-07-26T00:44:43.811Z,0
2018-07-26T00:45:24.274Z,0
2018-07-26T00:46:04.801Z,0
2018-07-26T00:46:45.324Z,0
2018-07-26T00:47:25.822Z,0
2018-07-26T00:48:06.333Z,0
2018-07-26T00:48:46.819Z,0
2018-07-26T00:49:27.299Z,0
2018-07-26T00:50:07.827Z,0
2018-07-26T00:50:48.314Z,0
2018-07-26T00:51:28.821Z,0
2018-07-26T00:52:09.328Z,0
2018-07-26T00:52:49.846Z,0
2018-07-26T00:53:30.324Z,0
2018-07-26T00:54:10.860Z,0
2018-07-26T00:54:51.335Z,0
2018-07-26T00:55:31.884Z,0
2018-07-26T00:56:12.436Z,0
2018-07-26T00:56:52.877Z,0
2018-07-26T00:57:33.347Z,0
2018-07-26T00:58:13.847Z,0
2018-07-26T00:58:54.364Z,0
2018-07-26T00:59:34.867Z,0
2018-07-26T01:00:15.357Z,0
2018-07-26T01:00:55.884Z,0
2018-07-26T01:01:36.355Z,0
2018-07-26T01:02:16.857Z,0
2018-07-26T01:02:57.355Z,0
2018-07-26T01:03:37.830Z,0
2018-07-26T01:04:18.348Z,0
2018-07-26T01:04:58.876Z,0
2018-07-26T01:05:39.374Z,0
2018-07-26T01:06:19.850Z,0
2018-07-26T01:07:00.356Z,0
2018-07-26T01:07:40.847Z,0
2018-07-26T01:08:21.341Z,0
2018-07-26T01:09:01.847Z,0
2018-07-26T01:09:42.510Z,0
2018-07-26T01:10:22.847Z,0
2018-07-26T01:11:03.379Z,0
2018-07-26T01:11:43.851Z,0
2018-07-26T01:12:24.376Z,0
2018-07-26T01:13:04.882Z,0
2018-07-26T01:13:45.393Z,0
2018-07-26T01:14:25.930Z,0
2018-07-26T01:15:06.425Z,0
2018-07-26T01:15:46.947Z,0
2018-07-26T01:16:27.487Z,0
2018-07-26T01:17:07.997Z,0
2018-07-26T01:17:48.553Z,0
2018-07-26T01:18:28.976Z,0
2018-07-26T01:19:09.511Z,0
2018-07-26T01:19:50.040Z,0
2018-07-26T01:20:30.519Z,0
2018-07-26T01:22:43.794Z,0
2018-07-26T01:23:24.283Z,0
2018-07-26T01:24:04.819Z,0
2018-07-26T01:24:45.378Z,0
2018-07-26T01:25:25.938Z,0
2018-07-26T01:26:06.423Z,0
2018-07-26T01:26:46.938Z,0
2018-07-26T01:27:27.417Z,0
2018-07-26T01:28:07.954Z,0
2018-07-26T01:28:48.485Z,0
2018-07-26T01:29:28.987Z,0
2018-07-26T01:30:09.492Z,0
2018-07-26T01:30:49.958Z,0
2018-07-26T01:31:30.467Z,0
2018-07-26T01:32:10.961Z,0
2018-07-26T01:32:51.499Z,0
2018-07-26T01:33:31.937Z,0
2018-07-26T01:34:12.418Z,0
2018-07-26T01:34:52.935Z,0
2018-07-26T01:35:33.414Z,0
2018-07-26T01:36:13.941Z,0
2018-07-26T01:36:54.478Z,0
2018-07-26T01:37:34.933Z,0
2018-07-26T01:38:15.450Z,0
2018-07-26T01:38:55.929Z,0
2018-07-26T01:39:36.421Z,0
2018-07-26T01:40:16.886Z,0
2018-07-26T01:40:57.366Z,0
2018-07-26T01:41:37.906Z,0
2018-07-26T01:42:18.379Z,0
2018-07-26T01:42:58.895Z,0
2018-07-26T01:43:39.368Z,0
2018-07-26T01:44:19.918Z,0
2018-07-26T01:45:00.364Z,0
2018-07-26T01:45:40.875Z,0
2018-07-26T01:46:21.356Z,0
2018-07-26T01:47:01.837Z,0
2018-07-26T01:47:42.332Z,0
2018-07-26T01:48:22.876Z,0
2018-07-26T01:49:03.402Z,0
2018-07-26T01:49:43.913Z,0
2018-07-26T01:50:24.437Z,0
2018-07-26T01:51:04.889Z,0
2018-07-26T01:51:45.402Z,0
2018-07-26T01:52:25.897Z,0
2018-07-26T01:53:06.349Z,0
2018-07-26T01:53:46.859Z,0
2018-07-26T01:54:27.364Z,0
2018-07-26T01:55:07.884Z,0
2018-07-26T01:55:48.363Z,0
2018-07-26T01:56:28.911Z,0
2018-07-26T01:57:09.409Z,0
2018-07-26T01:57:49.910Z,0
2018-07-26T01:58:30.369Z,0
2018-07-26T01:59:10.886Z,0
2018-07-26T01:59:51.370Z,0
2018-07-26T02:00:31.880Z,0
2018-07-26T02:01:12.374Z,0
2018-07-26T02:01:52.880Z,0
2018-07-26T02:02:33.391Z,0
2018-07-26T02:03:13.885Z,0
2018-07-26T02:03:54.400Z,0
2018-07-26T02:04:34.867Z,0
2018-07-26T02:05:15.389Z,0
2018-07-26T02:05:55.835Z,0
2018-07-26T02:06:36.345Z,0
2018-07-26T02:07:16.874Z,0
2018-07-26T02:07:57.348Z,0
2018-07-26T02:08:37.813Z,0
2018-07-26T02:09:18.349Z,0
2018-07-26T02:09:58.809Z,0
2018-07-26T02:10:39.341Z,0
2018-07-26T02:11:19.822Z,0
2018-07-26T02:12:00.322Z,0
2018-07-26T02:12:40.861Z,0
2018-07-26T02:13:21.322Z,0
2018-07-26T02:14:01.784Z,0
2018-07-26T02:14:42.316Z,0
2018-07-26T02:15:22.799Z,0
2018-07-26T02:16:03.320Z,0
2018-07-26T02:16:43.844Z,0
2018-07-26T02:17:24.318Z,0
2018-07-26T02:18:04.794Z,0
2018-07-26T02:18:45.314Z,0
2018-07-26T02:19:25.794Z,0
2018-07-26T02:20:08.155Z,0
2018-07-26T02:20:48.573Z,0
2018-07-26T02:21:29.088Z,0
2018-07-26T02:22:09.550Z,0
2018-07-26T02:22:50.084Z,0
2018-07-26T02:23:30.557Z,0
2018-07-26T02:24:11.045Z,0
2018-07-26T02:24:51.565Z,0
2018-07-26T02:25:32.053Z,0
2018-07-26T02:26:12.605Z,0
2018-07-26T02:26:53.120Z,0
2018-07-26T02:27:33.570Z,0
2018-07-26T02:28:14.121Z,0
2018-07-26T02:28:54.637Z,0
2018-07-26T02:29:35.121Z,0
2018-07-26T02:30:15.647Z,0
2018-07-26T02:30:56.252Z,0
2018-07-26T02:31:36.740Z,0
2018-07-26T02:32:17.203Z,0
2018-07-26T02:32:57.704Z,0
2018-07-26T02:33:38.286Z,0
2018-07-26T02:34:18.731Z,0
2018-07-26T02:34:59.227Z,0
2018-07-26T02:35:39.733Z,0
2018-07-26T02:36:20.801Z,0
2018-07-26T02:37:01.289Z,0
2018-07-26T02:37:41.735Z,0
2018-07-26T02:38:22.215Z,0
2018-07-26T02:39:02.731Z,0
2018-07-26T02:39:43.254Z,0
2018-07-26T02:40:23.755Z,0
2018-07-26T02:41:04.269Z,0
2018-07-26T02:41:44.807Z,0
2018-07-26T02:42:25.277Z,0
2018-07-26T02:43:05.815Z,0
2018-07-26T02:43:46.307Z,0
2018-07-26T02:44:26.800Z,0
2018-07-26T02:45:07.281Z,0
2018-07-26T02:45:47.808Z,0
2018-07-26T02:46:28.279Z,0
2018-07-26T02:47:08.759Z,0
2018-07-26T02:47:49.268Z,0
2018-07-26T02:48:29.749Z,0
2018-07-26T02:49:10.229Z,0
2018-07-26T02:49:50.715Z,0
2018-07-26T02:50:31.209Z,0
2018-07-26T02:51:11.709Z,0
2018-07-26T02:51:52.215Z,0
2018-07-26T02:52:32.721Z,0
2018-07-26T02:53:13.223Z,0
2018-07-26T02:53:53.756Z,0
2018-07-26T02:54:34.212Z,0
2018-07-26T02:55:14.721Z,0
2018-07-26T02:55:55.157Z,0
2018-07-26T02:56:35.677Z,0
2018-07-26T02:57:16.133Z,0
2018-07-26T02:57:56.646Z,0
2018-07-26T02:58:37.147Z,0
2018-07-26T02:59:17.619Z,0
2018-07-26T02:59:58.149Z,0
2018-07-26T03:00:38.623Z,0
2018-07-26T03:01:19.101Z,0
2018-07-26T03:01:59.591Z,0
2018-07-26T03:02:40.111Z,0
2018-07-26T03:03:20.595Z,0
2018-07-26T03:04:01.084Z,0
2018-07-26T03:04:41.585Z,0
2018-07-26T03:05:22.091Z,0
2018-07-26T03:06:02.625Z,0
2018-07-26T03:06:43.094Z,0
2018-07-26T03:07:23.639Z,0
2018-07-26T03:08:04.060Z,0
2018-07-26T03:08:44.529Z,0
2018-07-26T03:09:25.079Z,0
2018-07-26T03:10:05.534Z,0
2018-07-26T03:10:46.080Z,0
2018-07-26T03:11:26.540Z,0
2018-07-26T03:12:07.044Z,0
2018-07-26T03:12:47.547Z,0
2018-07-26T03:13:28.035Z,0
2018-07-26T03:14:08.539Z,0
2018-07-26T03:14:49.054Z,0
2018-07-26T03:15:29.524Z,0
2018-07-26T03:16:10.032Z,0
2018-07-26T03:16:50.561Z,0
2018-07-26T03:17:31.035Z,0
2018-07-26T03:18:11.510Z,0
2018-07-26T03:18:52.005Z,0
2018-07-26T03:19:32.487Z,0
2018-07-26T03:20:13.006Z,0
2018-07-26T03:20:53.540Z,0
2018-07-26T03:21:33.946Z,0
2018-07-26T03:22:14.487Z,0
2018-07-26T03:22:55.002Z,0
2018-07-26T03:23:35.454Z,0
2018-07-26T03:24:15.968Z,0
2018-07-26T03:24:56.446Z,0
2018-07-26T03:25:36.960Z,0
2018-07-26T03:26:17.457Z,0
2018-07-26T03:26:57.976Z,0
2018-07-26T03:27:38.492Z,0
2018-07-26T03:28:19.206Z,0
2018-07-26T03:28:59.478Z,0
2018-07-26T03:29:40.007Z,0
2018-07-26T03:30:20.512Z,0
2018-07-26T03:31:01.029Z,0
2018-07-26T03:31:41.549Z,0
2018-07-26T03:32:22.003Z,0
2018-07-26T03:33:02.503Z,0
2018-07-26T03:33:43.025Z,0
2018-07-26T03:34:23.557Z,0
2018-07-26T03:35:04.019Z,0
2018-07-26T03:35:44.514Z,0
2018-07-26T03:36:25.031Z,0
2018-07-26T03:37:05.559Z,0
2018-07-26T03:37:46.019Z,0
2018-07-26T03:38:26.511Z,0
2018-07-26T03:39:07.021Z,0
2018-07-26T03:39:47.526Z,0
2018-07-26T03:40:28.020Z,0
2018-07-26T03:41:08.525Z,0
2018-07-26T03:41:49.040Z,0
2018-07-26T03:42:29.514Z,0
2018-07-26T03:43:10.051Z,0
2018-07-26T03:43:50.492Z,0
2018-07-26T03:44:30.996Z,0
2018-07-26T03:45:11.502Z,5
2018-07-26T03:45:52.009Z,5
2018-07-26T03:46:32.513Z,5
2018-07-26T03:47:12.993Z,5
2018-07-26T03:47:53.482Z,5
2018-07-26T03:48:33.999Z,5
2018-07-26T03:49:14.531Z,5
2018-07-26T03:49:54.987Z,5
2018-07-26T03:50:35.497Z,5
2018-07-26T03:51:16.015Z,5
2018-07-26T03:51:56.421Z,5
2018-07-26T03:52:36.958Z,5
2018-07-26T03:53:17.441Z,5
2018-07-26T03:53:57.980Z,10
2018-07-26T03:54:38.420Z,10
2018-07-26T03:55:18.962Z,10
2018-07-26T03:55:59.437Z,10
2018-07-26T03:56:39.949Z,10
2018-07-26T03:57:20.420Z,10
2018-07-26T03:58:00.903Z,10
2018-07-26T03:58:41.384Z,10
2018-07-26T03:59:21.839Z,10
2018-07-26T04:00:02.334Z,15
2018-07-26T04:00:42.829Z,15
2018-07-26T04:01:23.337Z,15
2018-07-26T04:02:03.844Z,15
2018-07-26T04:02:44.319Z,15
2018-07-26T04:03:24.903Z,15
2018-07-26T04:04:05.356Z,15
2018-07-26T04:04:45.830Z,20
2018-07-26T04:05:26.404Z,20
2018-07-26T04:06:06.818Z,20
2018-07-26T04:06:47.298Z,20
2018-07-26T04:07:27.841Z,20
2018-07-26T04:08:08.289Z,20
2018-07-26T04:08:48.787Z,25
2018-07-26T04:09:29.245Z,25
2018-07-26T04:10:09.767Z,25
2018-07-26T04:10:50.255Z,25
2018-07-26T04:11:30.785Z,25
2018-07-26T04:12:11.250Z,25
2018-07-26T04:12:51.789Z,25
2018-07-26T04:13:32.370Z,30
2018-07-26T04:14:12.793Z,30
2018-07-26T04:14:53.324Z,30
2018-07-26T04:15:33.791Z,30
2018-07-26T04:16:14.298Z,30
2018-07-26T04:16:54.917Z,30
2018-07-26T04:17:39.322Z,35
2018-07-26T04:18:19.867Z,35
2018-07-26T04:19:00.292Z,35
2018-07-26T04:19:40.774Z,35
2018-07-26T04:20:21.310Z,35
2018-07-26T04:21:01.777Z,35
2018-07-26T04:21:42.290Z,40
2018-07-26T04:22:22.766Z,40
2018-07-26T04:23:03.265Z,40
2018-07-26T04:23:43.775Z,40
2018-07-26T04:24:24.278Z,40
2018-07-26T04:25:04.778Z,40
2018-07-26T04:25:45.285Z,45
2018-07-26T04:26:25.802Z,45
2018-07-26T04:27:06.292Z,45
2018-07-26T04:27:46.781Z,45
2018-07-26T04:28:27.283Z,45
2018-07-26T04:29:07.787Z,50
2018-07-26T04:29:48.263Z,50
2018-07-26T04:30:28.737Z,50
2018-07-26T04:31:09.276Z,50
2018-07-26T04:31:49.842Z,50
2018-07-26T04:32:30.282Z,50
2018-07-26T04:33:10.761Z,55
2018-07-26T04:33:51.257Z,55
2018-07-26T04:34:31.749Z,55
2018-07-26T04:35:12.187Z,55
2018-07-26T04:35:52.769Z,60
2018-07-26T04:36:33.241Z,65
2018-07-26T04:37:13.781Z,70
2018-07-26T04:37:54.275Z,65
2018-07-26T04:38:34.719Z,65
2018-07-26T04:39:15.227Z,70
2018-07-26T04:39:55.751Z,75
2018-07-26T04:40:36.208Z,70
2018-07-26T04:41:16.732Z,65
2018-07-26T04:41:57.223Z,65
2018-07-26T04:42:37.713Z,65
2018-07-26T04:43:18.232Z,70
2018-07-26T04:43:58.723Z,70
2018-07-26T04:44:39.251Z,70
2018-07-26T04:45:19.763Z,70
2018-07-26T04:46:00.264Z,70
2018-07-26T04:46:40.731Z,70
2018-07-26T04:47:21.230Z,80
2018-07-26T04:48:01.784Z,80
2018-07-26T04:48:42.269Z,75
2018-07-26T04:49:22.806Z,75
2018-07-26T04:50:03.283Z,75
2018-07-26T04:50:43.836Z,75
2018-07-26T04:51:24.299Z,75
2018-07-26T04:52:04.749Z,75
2018-07-26T04:52:45.635Z,75
2018-07-26T04:53:26.091Z,80
2018-07-26T04:54:06.637Z,80
2018-07-26T04:54:47.149Z,80
2018-07-26T04:55:27.615Z,80
2018-07-26T04:56:08.110Z,85
2018-07-26T04:56:48.605Z,85
2018-07-26T04:57:29.087Z,95
2018-07-26T04:58:09.582Z,105
2018-07-26T04:58:50.126Z,90
2018-07-26T04:59:30.607Z,85
2018-07-26T05:00:11.119Z,85
2018-07-26T05:00:51.636Z,85
2018-07-26T05:01:32.107Z,85
2018-07-26T05:02:12.567Z,90
2018-07-26T05:02:53.094Z,90
2018-07-26T05:03:33.621Z,90
2018-07-26T05:04:14.115Z,90
2018-07-26T05:04:54.577Z,90
2018-07-26T05:05:35.099Z,90
2018-07-26T05:06:15.645Z,95
2018-07-26T05:06:56.103Z,95
2018-07-26T05:07:36.683Z,95
2018-07-26T05:08:17.189Z,100
2018-07-26T05:08:57.708Z,105
2018-07-26T05:09:38.276Z,100
2018-07-26T05:10:19.006Z,95
2018-07-26T05:10:59.626Z,115
2018-07-26T05:11:42.060Z,135
2018-07-26T05:12:22.658Z,135
2018-07-26T05:13:03.154Z,105
2018-07-26T05:13:43.642Z,100
2018-07-26T05:14:24.152Z,100
2018-07-26T05:15:04.578Z,100
2018-07-26T05:15:45.103Z,100
2018-07-26T05:16:25.826Z,100
2018-07-26T05:17:06.237Z,100
2018-07-26T05:17:46.753Z,105
2018-07-26T05:18:27.272Z,100
2018-07-26T05:19:07.759Z,105
2018-07-26T05:19:48.199Z,105
2018-07-26T05:20:28.682Z,105
2018-07-26T05:21:09.198Z,105
2018-07-26T05:21:49.707Z,105
2018-07-26T05:22:30.221Z,105
2018-07-26T05:23:10.753Z,105
2018-07-26T05:23:51.287Z,105
2018-07-26T05:24:31.780Z,105
2018-07-26T05:25:12.375Z,105
2018-07-26T05:25:52.851Z,115
2018-07-26T05:26:33.352Z,105
2018-07-26T05:27:13.912Z,110
2018-07-26T05:27:54.411Z,110
2018-07-26T05:28:34.904Z,110
2018-07-26T05:29:15.661Z,110
2018-07-26T05:29:56.098Z,110
2018-07-26T05:30:36.612Z,110
2018-07-26T05:31:17.098Z,110
2018-07-26T05:31:57.583Z,110
2018-07-26T05:32:38.092Z,110
2018-07-26T05:33:18.614Z,110
2018-07-26T05:33:59.212Z,110
2018-07-26T05:34:39.906Z,110
2018-07-26T05:35:20.255Z,110
2018-07-26T05:36:00.779Z,115
2018-07-26T05:36:41.404Z,115
2018-07-26T05:37:21.935Z,115
2018-07-26T05:38:02.450Z,115
2018-07-26T05:38:43.074Z,115
2018-07-26T05:39:23.590Z,115
2018-07-26T05:40:04.041Z,115
2018-07-26T05:40:44.548Z,115
2018-07-26T05:41:24.979Z,115
2018-07-26T05:42:05.478Z,115
2018-07-26T05:42:46.271Z,115
2018-07-26T05:43:26.811Z,120
2018-07-26T05:44:07.310Z,120
2018-07-26T05:44:47.814Z,120
2018-07-26T05:45:28.283Z,120
2018-07-26T05:46:08.849Z,120
2018-07-26T05:46:49.335Z,120
2018-07-26T05:47:29.921Z,120
2018-07-26T05:48:10.346Z,120
2018-07-26T05:48:50.852Z,120
2018-07-26T05:49:31.290Z,120
2018-07-26T05:50:11.821Z,125
2018-07-26T05:50:52.406Z,120
2018-07-26T05:51:32.835Z,125
2018-07-26T05:52:13.317Z,135
2018-07-26T05:52:53.837Z,140
2018-07-26T05:53:34.496Z,135
2018-07-26T05:54:15.001Z,140
2018-07-26T05:54:55.597Z,145
2018-07-26T05:55:36.012Z,150
2018-07-26T05:56:16.596Z,155
2018-07-26T05:56:57.065Z,160
2018-07-26T05:57:37.604Z,175
2018-07-26T05:58:18.063Z,185
2018-07-26T05:58:58.619Z,195
2018-07-26T05:59:39.073Z,210
2018-07-26T06:00:21.533Z,225
2018-07-26T06:01:02.010Z,230
2018-07-26T06:01:42.450Z,230
2018-07-26T06:02:23.040Z,230
2018-07-26T06:03:03.477Z,230
2018-07-26T06:03:44.001Z,230
2018-07-26T06:04:24.457Z,235
2018-07-26T06:05:04.991Z,235
2018-07-26T06:05:45.463Z,235
2018-07-26T06:06:26.205Z,235
2018-07-26T06:07:06.847Z,235
2018-07-26T06:07:47.364Z,235
2018-07-26T06:08:27.858Z,235
2018-07-26T06:09:08.315Z,245
2018-07-26T06:09:48.845Z,240
2018-07-26T06:10:29.395Z,245
2018-07-26T06:11:09.920Z,245
2018-07-26T06:11:50.467Z,250
2018-07-26T06:12:30.958Z,250
2018-07-26T06:13:11.447Z,255
2018-07-26T06:13:51.919Z,260
2018-07-26T06:14:32.437Z,260
2018-07-26T06:15:12.947Z,260
2018-07-26T06:15:53.472Z,260
2018-07-26T06:16:33.951Z,260
2018-07-26T06:17:14.485Z,260
2018-07-26T06:17:54.937Z,260
2018-07-26T06:18:35.473Z,255
2018-07-26T06:19:15.974Z,255
2018-07-26T06:19:56.465Z,255
2018-07-26T06:20:36.971Z,255
2018-07-26T06:21:17.431Z,250
2018-07-26T06:21:57.931Z,250
2018-07-26T06:22:38.419Z,250
2018-07-26T06:23:18.914Z,245
2018-07-26T06:23:59.383Z,245
2018-07-26T06:24:39.927Z,240
2018-07-26T06:25:20.538Z,235
2018-07-26T06:26:00.978Z,235
2018-07-26T06:26:41.479Z,235
2018-07-26T06:27:21.962Z,230
2018-07-26T06:28:02.593Z,230
2018-07-26T06:28:43.009Z,225
2018-07-26T06:29:23.509Z,225
2018-07-26T06:30:03.992Z,220
2018-07-26T06:30:44.480Z,215
2018-07-26T06:31:25.038Z,215
2018-07-26T06:32:05.531Z,210
2018-07-26T06:32:46.518Z,210
2018-07-26T06:33:27.043Z,210
2018-07-26T06:34:07.616Z,210
2018-07-26T06:34:48.096Z,210
2018-07-26T06:35:28.562Z,215
2018-07-26T06:36:09.091Z,215
2018-07-26T06:36:49.590Z,215
2018-07-26T06:37:30.126Z,220
2018-07-26T06:38:10.637Z,220
2018-07-26T06:38:51.139Z,220
2018-07-26T06:39:31.773Z,220
2018-07-26T06:40:12.206Z,220
2018-07-26T06:40:52.707Z,220
2018-07-26T06:41:33.165Z,220
2018-07-26T06:42:13.705Z,220
2018-07-26T06:42:54.221Z,220
2018-07-26T06:43:34.728Z,220
2018-07-26T06:44:15.160Z,215
2018-07-26T06:44:55.705Z,215
2018-07-26T06:45:36.158Z,215
2018-07-26T06:46:16.661Z,210
2018-07-26T06:46:57.175Z,210
2018-07-26T06:47:37.670Z,210
2018-07-26T06:48:18.202Z,215
2018-07-26T06:48:58.647Z,215
2018-07-26T06:49:39.201Z,215
2018-07-26T06:50:19.706Z,220
2018-07-26T06:51:00.201Z,220
2018-07-26T06:51:40.737Z,225
2018-07-26T06:52:21.288Z,230
2018-07-26T06:53:03.733Z,230
2018-07-26T06:53:44.227Z,235
2018-07-26T06:54:24.837Z,240
2018-07-26T06:55:05.331Z,240
2018-07-26T06:55:45.881Z,240
2018-07-26T06:56:26.471Z,240
2018-07-26T06:57:06.974Z,240
2018-07-26T06:57:47.471Z,240
2018-07-26T06:58:27.955Z,240
2018-07-26T06:59:08.489Z,240
2018-07-26T06:59:49.002Z,245
2018-07-26T07:00:29.725Z,240
2018-07-26T07:01:10.252Z,240
2018-07-26T07:01:50.745Z,240
2018-07-26T07:02:31.221Z,240
2018-07-26T07:03:11.784Z,245
2018-07-26T07:03:52.270Z,240
2018-07-26T07:04:32.775Z,245
2018-07-26T07:05:13.270Z,240
2018-07-26T07:05:53.745Z,240
2018-07-26T07:06:34.311Z,240
2018-07-26T07:07:14.749Z,240
2018-07-26T07:07:55.288Z,240
2018-07-26T07:08:35.782Z,245
2018-07-26T07:09:16.282Z,240
2018-07-26T07:09:56.840Z,240
2018-07-26T07:10:37.333Z,240
2018-07-26T07:11:17.810Z,240
2018-07-26T07:11:58.328Z,240
2018-07-26T07:12:38.790Z,240
2018-07-26T07:13:19.346Z,240
2018-07-26T07:13:59.813Z,240
2018-07-26T07:14:40.333Z,240
2018-07-26T07:15:20.797Z,240
2018-07-26T07:16:01.299Z,240
2018-07-26T07:16:41.817Z,240
2018-07-26T07:17:22.360Z,240
2018-07-26T07:18:02.845Z,240
2018-07-26T07:18:43.372Z,235
2018-07-26T07:19:23.883Z,240
2018-07-26T07:20:04.376Z,235
2018-07-26T07:20:44.947Z,235
2018-07-26T07:21:25.400Z,235
2018-07-26T07:22:05.869Z,235
2018-07-26T07:22:46.402Z,235
2018-07-26T07:23:26.918Z,230
2018-07-26T07:24:07.423Z,230
2018-07-26T07:24:47.915Z,230
2018-07-26T07:25:28.423Z,230
2018-07-26T07:26:08.923Z,230
2018-07-26T07:26:49.463Z,230
2018-07-26T07:27:29.949Z,230
2018-07-26T07:28:10.438Z,225
2018-07-26T07:28:50.936Z,225
2018-07-26T07:29:31.499Z,225
2018-07-26T07:30:12.026Z,225
2018-07-26T07:30:52.488Z,225
2018-07-26T07:31:32.994Z,225
2018-07-26T07:32:13.541Z,220
2018-07-26T07:32:54.022Z,220
2018-07-26T07:33:34.474Z,220
2018-07-26T07:34:15.044Z,220
2018-07-26T07:34:55.494Z,220
2018-07-26T07:35:36.015Z,220
2018-07-26T07:36:16.519Z,215
2018-07-26T07:36:56.978Z,215
2018-07-26T07:37:37.530Z,215
2018-07-26T07:38:17.987Z,215
2018-07-26T07:38:58.542Z,215
2018-07-26T07:39:39.010Z,215
2018-07-26T07:40:19.501Z,210
2018-07-26T07:41:00.075Z,210
2018-07-26T07:41:40.601Z,210
2018-07-26T07:42:21.061Z,210
2018-07-26T07:43:01.582Z,210
2018-07-26T07:43:42.053Z,205
2018-07-26T07:44:22.563Z,205
2018-07-26T07:45:03.075Z,205
2018-07-26T07:45:43.555Z,205
2018-07-26T07:46:24.053Z,210
2018-07-26T07:47:04.580Z,210
2018-07-26T07:47:45.182Z,205
2018-07-26T07:48:25.571Z,200
2018-07-26T07:49:06.106Z,200
2018-07-26T07:49:46.569Z,200
2018-07-26T07:50:27.235Z,200
2018-07-26T07:51:07.751Z,195
2018-07-26T07:51:48.271Z,195
2018-07-26T07:52:28.753Z,195
2018-07-26T07:53:09.383Z,195
2018-07-26T07:53:49.877Z,195
2018-07-26T07:54:30.424Z,190
2018-07-26T07:55:10.934Z,190
2018-07-26T07:55:51.393Z,190
2018-07-26T07:56:31.965Z,190
2018-07-26T07:57:12.423Z,190
2018-07-26T07:57:53.610Z,190
2018-07-26T07:58:34.147Z,190
2018-07-26T07:59:14.564Z,190
2018-07-26T07:59:55.161Z,190
2018-07-26T08:00:35.583Z,190
2018-07-26T08:01:16.141Z,190
2018-07-26T08:01:56.645Z,185
2018-07-26T08:02:37.118Z,185
2018-07-26T08:03:17.604Z,185
2018-07-26T08:03:58.087Z,185
2018-07-26T08:04:38.604Z,185
2018-07-26T08:05:19.196Z,180
2018-07-26T08:05:59.612Z,180
2018-07-26T08:06:40.126Z,180
2018-07-26T08:07:20.782Z,180
2018-07-26T08:08:01.299Z,180
2018-07-26T08:08:41.758Z,180
2018-07-26T08:09:22.283Z,175
2018-07-26T08:10:02.775Z,175
2018-07-26T08:10:43.316Z,175
2018-07-26T08:11:23.824Z,175
2018-07-26T08:12:04.329Z,170
2018-07-26T08:12:44.899Z,170
2018-07-26T08:13:25.546Z,170
2018-07-26T08:14:06.024Z,170
2018-07-26T08:14:46.535Z,170
2018-07-26T08:15:27.027Z,165
2018-07-26T08:16:07.490Z,170
2018-07-26T08:16:48.010Z,165
2018-07-26T08:17:28.490Z,170
2018-07-26T08:18:09.029Z,165
2018-07-26T08:18:49.503Z,165
2018-07-26T08:19:30.021Z,165
2018-07-26T08:20:10.536Z,160
2018-07-26T08:20:50.983Z,160
2018-07-26T08:21:31.486Z,160
2018-07-26T08:22:12.014Z,160
2018-07-26T08:22:52.521Z,155
2018-07-26T08:23:33.051Z,155
2018-07-26T08:24:13.578Z,150
2018-07-26T08:24:54.084Z,150
2018-07-26T08:25:34.544Z,140
2018-07-26T08:26:15.075Z,140
2018-07-26T08:26:55.542Z,140
2018-07-26T08:27:36.037Z,135
2018-07-26T08:28:16.616Z,135
2018-07-26T08:28:57.097Z,135
2018-07-26T08:29:37.661Z,135
2018-07-26T08:30:18.086Z,135
2018-07-26T08:30:58.661Z,135
2018-07-26T08:31:39.220Z,135
2018-07-26T08:32:19.664Z,130
2018-07-26T08:33:00.133Z,130
2018-07-26T08:33:40.642Z,130
2018-07-26T08:34:21.135Z,130
2018-07-26T08:35:01.666Z,130
2018-07-26T08:35:42.187Z,130
2018-07-26T08:36:22.735Z,130
2018-07-26T08:37:03.317Z,130
2018-07-26T08:37:43.763Z,130
2018-07-26T08:38:24.252Z,130
2018-07-26T08:39:04.834Z,125
2018-07-26T08:39:45.282Z,125
2018-07-26T08:40:25.808Z,125
2018-07-26T08:41:06.389Z,125
2018-07-26T08:41:46.841Z,125
2018-07-26T08:42:27.380Z,125
2018-07-26T08:43:07.856Z,125
2018-07-26T08:43:48.375Z,125
2018-07-26T08:44:28.886Z,125
2018-07-26T08:45:09.399Z,125
2018-07-26T08:45:49.920Z,120
2018-07-26T08:46:30.394Z,120
2018-07-26T08:47:10.902Z,120
2018-07-26T08:47:51.387Z,125
2018-07-26T08:48:31.874Z,120
2018-07-26T08:49:12.419Z,120
2018-07-26T08:49:53.045Z,120
2018-07-26T08:50:33.572Z,120
2018-07-26T08:51:14.073Z,120
2018-07-26T08:51:54.551Z,115
2018-07-26T08:52:35.036Z,115
2018-07-26T08:53:15.596Z,115
2018-07-26T08:53:56.068Z,115
2018-07-26T08:54:36.574Z,115
2018-07-26T08:55:17.040Z,115
2018-07-26T08:55:57.588Z,115
2018-07-26T08:56:38.059Z,115
2018-07-26T08:57:18.561Z,115
2018-07-26T08:57:59.063Z,120
2018-07-26T08:58:39.556Z,115
2018-07-26T08:59:20.107Z,115
2018-07-26T09:00:00.651Z,115
2018-07-26T09:00:41.121Z,115
2018-07-26T09:01:21.615Z,115
2018-07-26T09:02:02.123Z,115
2018-07-26T09:02:42.738Z,115
2018-07-26T09:03:23.191Z,115
2018-07-26T09:04:03.685Z,115
2018-07-26T09:04:44.143Z,115
2018-07-26T09:05:24.711Z,115
2018-07-26T09:06:05.207Z,115
2018-07-26T09:06:45.696Z,115
2018-07-26T09:07:26.289Z,115
2018-07-26T09:08:06.805Z,115
2018-07-26T09:08:47.327Z,110
2018-07-26T09:09:27.827Z,110
2018-07-26T09:10:08.329Z,110
2018-07-26T09:10:48.858Z,110
2018-07-26T09:11:29.386Z,110
2018-07-26T09:12:09.951Z,110
2018-07-26T09:12:50.358Z,110
2018-07-26T09:13:30.907Z,110
2018-07-26T09:14:11.406Z,110
2018-07-26T09:14:51.890Z,110
2018-07-26T09:15:32.394Z,110
2018-07-26T09:16:12.866Z,110
2018-07-26T09:16:53.347Z,110
2018-07-26T09:17:33.858Z,110
2018-07-26T09:18:14.341Z,110
2018-07-26T09:18:54.910Z,110
2018-07-26T09:19:35.458Z,110
2018-07-26T09:20:15.927Z,110
2018-07-26T09:20:56.395Z,110
2018-07-26T09:21:36.892Z,110
2018-07-26T09:22:17.557Z,110
2018-07-26T09:22:58.084Z,110
2018-07-26T09:23:38.619Z,110
2018-07-26T09:24:19.292Z,110
2018-07-26T09:24:59.843Z,110
2018-07-26T09:25:40.427Z,110
2018-07-26T09:26:21.472Z,110
2018-07-26T09:27:01.967Z,110
2018-07-26T09:27:42.519Z,110
2018-07-26T09:28:23.113Z,110
2018-07-26T09:29:03.715Z,110
2018-07-26T09:29:44.255Z,110
2018-07-26T09:30:24.760Z,110
2018-07-26T09:31:05.225Z,110
2018-07-26T09:31:45.751Z,110
2018-07-26T09:32:26.259Z,110
2018-07-26T09:33:06.867Z,110
2018-07-26T09:33:47.461Z,110
2018-07-26T09:34:28.278Z,110
2018-07-26T09:35:08.783Z,110
2018-07-26T09:35:49.251Z,110
2018-07-26T09:36:29.749Z,105
2018-07-26T09:37:10.262Z,110
2018-07-26T09:37:50.716Z,105